Time;durP1;ratioP1;P1;durP2;ratioP2;P2;SDS_P1;SDS_P2;PMS_P1;PMS_P2;Temp;Humidity;BMP_temperature;BMP_pressure;BME280_temperature;BME280_humidity;BME280_pressure;Samples;Min_cycle;Max_cycle;Signal;HPM_P1;HPM_P2
2022/11/02 00:01:25;;;;;;;11.27;2.05;;;;;;;18.03;48.46;101347.84;4952808;28;124098;-69
2022/11/02 00:03:53;;;;;;;8.23;1.90;;;;;;;18.02;48.52;101342.59;4954760;28;123900;-69
2022/11/02 00:06:20;;;;;;;8.57;2.10;;;;;;;17.99;48.43;101341.00;4955306;28;114291;-69
2022/11/02 00:08:47;;;;;;;10.48;2.00;;;;;;;17.99;48.48;101340.09;4955707;28;111874;-69
2022/11/02 00:11:14;;;;;;;11.73;2.08;;;;;;;17.96;48.39;101335.81;4956081;28;124031;-68
2022/11/02 00:13:41;;;;;;;12.00;2.00;;;;;;;17.96;48.47;101334.97;4953334;28;124234;-69
2022/11/02 00:16:13;;;;;;;9.05;1.95;;;;;;;17.94;48.59;101329.72;4960752;28;114980;-68
2022/11/02 00:18:42;;;;;;;10.30;2.05;;;;;;;17.92;48.58;101328.97;4954122;28;115003;-68
2022/11/02 00:21:10;;;;;;;9.75;2.00;;;;;;;17.91;48.58;101332.59;4957003;28;124076;-69
2022/11/02 00:23:39;;;;;;;10.20;2.00;;;;;;;17.90;48.57;101328.22;4954152;28;124443;-68
2022/11/02 00:26:06;;;;;;;10.90;2.33;;;;;;;17.87;48.62;101326.56;4957567;28;114598;-69
2022/11/02 00:28:33;;;;;;;9.07;1.77;;;;;;;17.85;48.80;101322.28;4952291;28;112139;-68
2022/11/02 00:31:01;;;;;;;9.48;2.00;;;;;;;17.84;48.77;101315.22;4954323;28;124384;-68
2022/11/02 00:33:28;;;;;;;7.57;1.73;;;;;;;17.83;48.87;101318.84;4959324;28;124687;-69
2022/11/02 00:35:55;;;;;;;11.13;2.20;;;;;;;17.83;48.83;101324.19;4955553;28;114581;-68
2022/11/02 00:38:22;;;;;;;6.72;1.70;;;;;;;17.81;48.95;101316.25;4972628;28;114518;-68
2022/11/02 00:40:50;;;;;;;7.88;2.00;;;;;;;17.79;48.82;101322.69;4952457;28;123770;-69
2022/11/02 00:43:17;;;;;;;10.25;2.17;;;;;;;17.77;49.12;101329.97;4956305;28;124291;-69
2022/11/02 00:45:44;;;;;;;8.73;2.05;;;;;;;17.76;48.89;101322.88;4956763;28;114303;-69
2022/11/02 00:48:11;;;;;;;9.77;2.45;;;;;;;17.71;48.89;101321.38;4954984;28;113976;-68
2022/11/02 00:50:38;;;;;;;8.98;1.75;;;;;;;17.69;49.01;101320.63;4953808;28;124169;-68
2022/11/02 00:53:05;;;;;;;7.78;2.05;;;;;;;17.67;49.04;101319.88;4970619;28;124674;-69
2022/11/02 00:55:33;;;;;;;12.02;1.95;;;;;;;17.63;49.12;101329.09;4955721;28;113347;-69
2022/11/02 00:58:02;;;;;;;8.77;1.77;;;;;;;17.58;49.11;101323.16;4967994;28;113028;-68
2022/11/02 01:00:30;;;;;;;10.68;1.70;;;;;;;17.54;49.08;101324.34;4955897;28;123524;-69
2022/11/02 01:03:01;;;;;;;8.10;1.70;;;;;;;17.50;49.28;101330.88;4952441;28;123956;-69
2022/11/02 01:05:29;;;;;;;8.05;1.92;;;;;;;17.46;49.41;101332.88;4948649;28;115072;-69
2022/11/02 01:07:56;;;;;;;11.23;2.00;;;;;;;17.45;49.39;101330.31;4955048;28;114277;-69
2022/11/02 01:10:24;;;;;;;6.90;1.65;;;;;;;17.43;49.37;101334.91;4956541;28;123238;-69
2022/11/02 01:12:51;;;;;;;12.25;1.88;;;;;;;17.40;49.47;101348.50;4954317;28;124420;-69
2022/11/02 01:15:19;;;;;;;6.68;1.60;;;;;;;17.37;49.61;101348.72;4954376;28;114583;-69
2022/11/02 01:17:46;;;;;;;11.95;2.28;;;;;;;17.36;49.67;101352.34;4973136;28;113480;-68
2022/11/02 01:20:13;;;;;;;7.93;1.98;;;;;;;17.35;49.69;101353.28;4955864;28;125623;-69
2022/11/02 01:22:40;;;;;;;11.20;2.20;;;;;;;17.32;49.85;101354.34;4952774;28;123601;-68
2022/11/02 01:25:08;;;;;;;7.88;1.70;;;;;;;17.29;49.90;101347.38;4950727;28;113992;-68
2022/11/02 01:27:35;;;;;;;7.30;1.60;;;;;;;17.29;50.00;101360.78;4950599;28;113724;-69
2022/11/02 01:30:03;;;;;;;9.45;1.63;;;;;;;17.29;50.06;101358.09;4953966;28;124641;-69
2022/11/02 01:32:31;;;;;;;8.93;1.88;;;;;;;17.28;50.01;101356.38;4951573;28;123927;-68
2022/11/02 01:34:58;;;;;;;9.23;2.05;;;;;;;17.26;49.87;101363.63;4958428;28;114206;-69
2022/11/02 01:37:25;;;;;;;7.75;1.60;;;;;;;17.24;49.85;101360.22;4954410;28;113784;-68
2022/11/02 01:39:52;;;;;;;7.88;1.60;;;;;;;17.22;49.73;101355.94;4954876;28;124601;-69
2022/11/02 01:42:27;;;;;;;5.65;1.40;;;;;;;17.19;50.02;101351.59;4955586;28;125281;-69
2022/11/02 01:44:55;;;;;;;9.80;1.75;;;;;;;17.18;49.75;101355.25;4969222;28;113695;-68
2022/11/02 01:47:34;;;;;;;8.15;1.60;;;;;;;17.14;49.75;101361.78;4954410;28;114191;-69
2022/11/02 01:50:05;;;;;;;9.20;1.42;;;;;;;17.15;49.79;101355.44;4960641;28;124106;-68
2022/11/02 01:52:35;;;;;;;8.18;1.65;;;;;;;17.13;49.71;101368.06;4957014;28;123974;-69
2022/11/02 01:55:18;;;;;;;7.75;1.58;;;;;;;17.11;49.55;101375.34;4958458;28;115090;-68
2022/11/02 01:57:51;;;;;;;7.63;1.50;;;;;;;17.09;49.20;101377.25;4962291;28;113352;-69
2022/11/02 02:00:18;;;;;;;7.57;1.50;;;;;;;17.08;49.09;101391.59;4960039;28;123007;-68
2022/11/02 02:02:55;;;;;;;5.50;1.30;;;;;;;17.08;49.11;101386.22;4957022;28;123137;-69
2022/11/02 02:05:24;;;;;;;8.65;1.70;;;;;;;17.08;48.78;101380.88;4952903;28;114456;-69
2022/11/02 02:07:52;;;;;;;5.95;1.35;;;;;;;17.08;48.68;101386.22;4951502;28;113575;-69
2022/11/02 02:10:19;;;;;;;8.82;1.75;;;;;;;17.07;48.68;101392.56;4952073;28;123640;-68
2022/11/02 02:12:48;;;;;;;8.35;1.50;;;;;;;17.07;48.62;101384.53;4950471;28;124320;-69
2022/11/02 02:15:23;;;;;;;8.63;1.60;;;;;;;17.06;48.49;101394.34;4955229;28;113270;-68
2022/11/02 02:18:26;;;;;;;7.40;1.25;;;;;;;17.03;48.70;101393.72;4948510;28;114471;-69
2022/11/02 02:21:07;;;;;;;6.93;1.40;;;;;;;17.03;48.57;101388.38;4923099;28;124109;-69
2022/11/02 02:23:53;;;;;;;8.52;1.38;;;;;;;17.02;48.70;101397.34;4954009;28;124327;-69
2022/11/02 02:26:45;;;;;;;7.63;1.55;;;;;;;17.02;48.64;101391.97;4949623;28;114944;-68
2022/11/02 02:29:22;;;;;;;4.05;1.45;;;;;;;16.99;48.81;101392.16;4954234;28;112808;-68
2022/11/02 02:32:23;;;;;;;7.45;1.33;;;;;;;16.99;48.83;101386.81;4952222;28;124330;-68
2022/11/02 02:35:20;;;;;;;8.32;1.67;;;;;;;16.99;48.71;101378.78;4951929;28;123966;-69
2022/11/02 02:37:56;;;;;;;7.28;1.30;;;;;;;16.99;48.67;101384.13;4970022;28;113216;-68
2022/11/02 02:40:35;;;;;;;5.65;1.33;;;;;;;17.00;48.82;101383.19;4950846;28;113449;-68
2022/11/02 02:43:14;;;;;;;6.72;1.17;;;;;;;17.01;48.79;101390.25;4964377;28;123792;-69
2022/11/02 02:45:52;;;;;;;7.32;1.30;;;;;;;16.98;48.77;101398.50;4947766;28;123733;-69
2022/11/02 02:48:22;;;;;;;6.38;1.63;;;;;;;16.97;48.68;101389.63;4965850;28;114253;-69
2022/11/02 02:51:03;;;;;;;9.10;1.70;;;;;;;16.97;48.88;101394.09;4952364;28;114996;-68
2022/11/02 02:53:42;;;;;;;8.75;1.50;;;;;;;16.93;48.89;101394.28;4949368;28;123095;-68
2022/11/02 02:56:12;;;;;;;5.15;1.30;;;;;;;16.92;48.72;101395.25;4955037;28;122747;-69
2022/11/02 02:59:19;;;;;;;10.73;1.88;;;;;;;16.89;48.83;101398.09;4950959;28;113262;-69
2022/11/02 03:01:47;;;;;;;11.55;2.20;;;;;;;16.87;48.86;101400.00;4949976;28;114599;-68
2022/11/02 03:04:14;;;;;;;7.28;1.60;;;;;;;16.86;48.85;101402.81;4955143;28;124317;-68
2022/11/02 03:06:47;;;;;;;7.22;1.58;;;;;;;16.83;49.11;101406.50;4950406;28;123794;-68
2022/11/02 03:09:35;;;;;;;7.20;1.73;;;;;;;16.81;49.02;101405.72;4950811;28;115201;-68
2022/11/02 03:12:14;;;;;;;8.65;1.63;;;;;;;16.78;49.05;101400.56;4966825;28;113107;-68
2022/11/02 03:15:03;;;;;;;6.40;1.45;;;;;;;16.76;49.08;101402.47;4967016;28;124222;-68
2022/11/02 03:17:34;;;;;;;6.60;1.38;;;;;;;16.74;49.13;101409.72;4967003;28;123765;-69
2022/11/02 03:20:24;;;;;;;6.03;1.40;;;;;;;16.72;49.18;101406.28;4966374;28;113834;-68
2022/11/02 03:23:04;;;;;;;7.50;1.45;;;;;;;16.70;49.23;101409.06;4951380;28;114735;-69
2022/11/02 03:25:58;;;;;;;9.35;1.88;;;;;;;16.66;49.17;101402.19;4951467;28;123522;-69
2022/11/02 03:28:50;;;;;;;6.90;1.20;;;;;;;16.62;49.19;101402.47;4933479;28;123491;-69
2022/11/02 03:31:39;;;;;;;5.35;1.60;;;;;;;16.58;49.31;101414.31;4967973;28;113350;-69
2022/11/02 03:34:40;;;;;;;6.93;1.60;;;;;;;16.55;49.52;101410.84;4954346;28;113242;-68
2022/11/02 03:37:36;;;;;;;11.50;1.88;;;;;;;16.52;49.31;101420.91;4952102;28;123286;-68
2022/11/02 03:40:07;;;;;;;;;;;;;;;16.46;49.27;101416.78;4950638;28;124231;-69
2022/11/02 03:42:35;;;;;;;9.32;1.58;;;;;;;16.48;49.35;101435.38;4967886;28;115070;-69
2022/11/02 03:45:28;;;;;;;9.77;1.80;;;;;;;16.45;49.54;101431.09;4948130;28;115205;-68
2022/11/02 03:48:03;;;;;;;8.75;2.10;;;;;;;16.43;49.56;101435.69;4949372;28;123623;-68
2022/11/02 03:50:32;;;;;;;7.83;1.47;;;;;;;16.44;49.54;101432.03;4947583;28;123191;-68
2022/11/02 03:53:15;;;;;;;9.38;1.40;;;;;;;16.42;49.54;101436.63;4957234;28;114610;-69
2022/11/02 03:55:48;;;;;;;9.27;2.08;;;;;;;16.41;49.50;101439.41;4950007;28;112946;-68
2022/11/02 03:58:15;;;;;;;7.63;1.65;;;;;;;16.40;49.57;101441.19;4961979;28;123109;-69
2022/11/02 04:00:51;;;;;;;7.95;1.75;;;;;;;16.41;49.48;101445.59;4953826;28;122538;-68
2022/11/02 04:03:22;;;;;;;11.77;2.10;;;;;;;16.40;49.46;101441.19;4933140;28;113495;-68
2022/11/02 04:05:49;;;;;;;6.57;1.67;;;;;;;16.40;49.50;101443.88;4963233;28;113359;-68
2022/11/02 04:08:32;;;;;;;8.68;1.67;;;;;;;16.39;49.46;101439.50;4965265;28;122619;-69
2022/11/02 04:16:38;;;;;;;10.55;1.65;;;;;;;16.36;49.48;101453.03;4949754;28;112995;-68
2022/11/02 04:19:29;;;;;;;9.20;1.77;;;;;;;16.37;49.35;101464.56;4968748;28;123495;-68
2022/11/02 04:27:41;;;;;;;8.68;1.80;;;;;;;16.32;49.24;101470.22;4952276;28;113509;-69
2022/11/02 04:30:09;;;;;;;10.63;1.95;;;;;;;16.31;49.67;101476.50;4931369;28;123040;-69
2022/11/02 04:35:31;;;;;;;11.18;2.25;;;;;;;16.29;49.57;101478.41;4960663;28;114499;-69
2022/11/02 04:40:45;;;;;;;7.13;1.75;;;;;;;16.27;49.65;101501.69;4952121;28;123460;-68
2022/11/02 04:43:13;;;;;;;11.30;2.20;;;;;;;16.26;49.83;101505.34;4950421;28;123184;-69
2022/11/02 04:45:40;;;;;;;9.63;1.88;;;;;;;16.26;49.76;101484.81;4950385;28;113945;-68
2022/11/02 04:48:08;;;;;;;7.00;1.60;;;;;;;16.26;49.77;101494.63;4955141;28;113955;-69
2022/11/02 04:50:36;;;;;;;10.13;1.83;;;;;;;16.26;49.82;101494.63;4954911;28;123167;-69
2022/11/02 04:53:06;;;;;;;7.88;1.63;;;;;;;16.27;49.78;101507.03;4953758;28;123132;-68
2022/11/02 04:55:34;;;;;;;8.13;2.00;;;;;;;16.27;49.82;101504.38;4967535;28;114290;-68
2022/11/02 04:58:01;;;;;;;8.02;1.73;;;;;;;16.27;49.95;101512.38;4952441;28;113285;-68
2022/11/02 05:00:29;;;;;;;7.82;1.88;;;;;;;16.29;49.79;101523.84;4965061;28;124077;-68
2022/11/02 05:02:57;;;;;;;7.50;1.80;;;;;;;16.29;49.78;101519.38;4953075;28;123850;-69
2022/11/02 05:05:25;;;;;;;7.18;1.60;;;;;;;16.31;49.84;101524.63;4951229;28;115341;-68
2022/11/02 05:07:55;;;;;;;9.25;1.95;;;;;;;16.31;49.85;101535.31;4955278;28;114214;-68
2022/11/02 05:10:22;;;;;;;9.00;1.92;;;;;;;16.29;49.60;101531.88;4965741;28;123355;-68
2022/11/02 05:12:58;;;;;;;7.45;1.75;;;;;;;16.27;49.89;101533.75;4967654;28;122803;-68
2022/11/02 05:15:30;;;;;;;12.00;2.20;;;;;;;16.25;49.72;101527.66;4952851;28;114314;-68
2022/11/02 05:17:59;;;;;;;7.45;1.67;;;;;;;16.25;49.86;101535.66;4969128;28;113457;-68
2022/11/02 05:20:28;;;;;;;13.27;2.40;;;;;;;16.24;49.67;101528.63;4954476;28;124261;-69
2022/11/02 05:22:57;;;;;;;8.05;1.90;;;;;;;16.22;49.82;101541.19;4953971;28;124433;-68
2022/11/02 05:25:24;;;;;;;8.43;1.65;;;;;;;16.21;49.71;101544.81;4972182;28;114635;-68
2022/11/02 05:27:52;;;;;;;8.82;1.75;;;;;;;16.19;49.91;101557.41;4969386;28;113642;-68
2022/11/02 05:30:19;;;;;;;12.35;1.83;;;;;;;16.19;49.91;101557.41;4960011;28;122483;-68
2022/11/02 05:32:47;;;;;;;9.20;1.75;;;;;;;16.17;49.92;101568.19;4968993;28;123678;-68
2022/11/02 05:35:14;;;;;;;12.65;1.95;;;;;;;16.19;50.01;101573.44;4954203;28;113595;-69
2022/11/02 05:37:42;;;;;;;10.70;1.98;;;;;;;16.20;50.03;101581.38;4937092;28;113298;-69
2022/11/02 05:40:10;;;;;;;7.35;2.03;;;;;;;16.22;49.98;101583.94;4938500;28;123217;-68
2022/11/02 05:42:39;;;;;;;8.52;2.20;;;;;;;16.23;50.10;101585.69;4951394;28;123180;-69
2022/11/02 05:45:06;;;;;;;13.05;2.25;;;;;;;16.23;50.12;101586.53;4956777;28;114821;-69
2022/11/02 05:47:33;;;;;;;9.63;1.75;;;;;;;16.24;49.97;101598.97;4953296;28;112829;-69
2022/11/02 05:50:01;;;;;;;9.00;2.10;;;;;;;16.24;49.85;101603.47;4952858;28;124317;-69
2022/11/02 05:52:28;;;;;;;11.27;1.83;;;;;;;16.25;49.82;101599.81;4953202;28;123823;-68
2022/11/02 05:54:55;;;;;;;11.15;1.63;;;;;;;16.25;49.90;101605.16;4965280;28;113199;-69
2022/11/02 05:57:22;;;;;;;10.25;2.00;;;;;;;16.27;49.87;101605.94;4952377;28;113380;-69
2022/11/02 05:59:49;;;;;;;10.90;1.95;;;;;;;16.27;49.89;101603.25;4971042;28;124367;-68
2022/11/02 06:02:16;;;;;;;10.75;2.00;;;;;;;16.27;49.65;101613.97;4951626;28;124101;-68
2022/11/02 06:04:43;;;;;;;11.05;2.30;;;;;;;16.27;49.89;101624.66;4952310;28;114430;-68
2022/11/02 06:07:10;;;;;;;14.60;2.28;;;;;;;16.28;49.79;101626.38;4956483;28;113802;-68
2022/11/02 06:09:37;;;;;;;9.32;1.73;;;;;;;16.27;49.85;101635.34;4953031;28;125465;-69
2022/11/02 06:12:04;;;;;;;7.60;1.63;;;;;;;16.25;49.58;101631.91;4964960;28;123266;-69
2022/11/02 06:14:31;;;;;;;7.40;1.75;;;;;;;16.23;49.70;101628.44;4952849;28;114933;-68
2022/11/02 06:16:58;;;;;;;11.40;2.15;;;;;;;16.19;49.62;101630.44;4953951;28;115395;-69
2022/11/02 06:19:25;;;;;;;6.95;1.80;;;;;;;16.18;49.56;101643.88;4952093;28;123279;-68
2022/11/02 06:21:52;;;;;;;7.18;1.83;;;;;;;16.12;49.61;101659.31;4958405;28;124305;-68
2022/11/02 06:24:19;;;;;;;11.00;1.80;;;;;;;16.10;49.65;101661.19;4965418;28;113190;-68
2022/11/02 06:26:47;;;;;;;9.77;1.95;;;;;;;16.06;49.59;101665.00;4952337;28;114429;-68
2022/11/02 06:29:14;;;;;;;10.27;1.80;;;;;;;16.04;49.67;101666.88;4952512;28;123940;-69
2022/11/02 06:31:41;;;;;;;11.13;2.25;;;;;;;16.00;49.81;101678.69;4951620;28;123935;-69
2022/11/02 06:34:08;;;;;;;8.23;1.80;;;;;;;15.97;50.02;101681.50;4950540;28;112695;-69
2022/11/02 06:36:35;;;;;;;12.10;2.20;;;;;;;15.93;49.84;101690.66;4953876;28;114532;-69
2022/11/02 06:39:02;;;;;;;13.40;2.20;;;;;;;15.89;49.86;101699.78;4935079;28;123278;-68
2022/11/02 06:41:29;;;;;;;11.45;2.45;;;;;;;15.85;50.07;101706.25;4951184;28;125414;-69
2022/11/02 06:43:56;;;;;;;9.77;2.00;;;;;;;15.81;50.02;101702.88;4952834;28;113849;-69
2022/11/02 06:46:24;;;;;;;9.23;2.03;;;;;;;15.76;50.21;101711.13;4954580;28;113768;-68
2022/11/02 06:48:51;;;;;;;8.95;1.83;;;;;;;15.74;50.27;101723.69;4954700;28;123505;-68
2022/11/02 06:51:18;;;;;;;10.52;2.15;;;;;;;15.73;50.30;101726.44;4966126;28;125098;-68
2022/11/02 06:53:45;;;;;;;9.73;2.33;;;;;;;15.70;50.31;101727.44;4949969;28;115079;-68
2022/11/02 06:56:12;;;;;;;11.82;2.00;;;;;;;15.69;50.14;101736.41;4954330;28;117203;-68
2022/11/02 06:58:39;;;;;;;11.35;2.00;;;;;;;15.69;50.41;101754.22;4954937;28;123360;-69
2022/11/02 07:01:07;;;;;;;8.55;1.90;;;;;;;15.66;50.39;101752.56;4953519;28;123692;-68
2022/11/02 07:03:35;;;;;;;10.63;1.83;;;;;;;15.63;50.44;101758.06;4954616;28;115247;-69
2022/11/02 07:06:02;;;;;;;9.25;2.17;;;;;;;15.62;50.46;101764.38;4953936;28;114129;-68
2022/11/02 07:08:29;;;;;;;12.25;1.63;;;;;;;15.61;50.58;101770.63;4958501;28;124962;-69
2022/11/02 07:10:56;;;;;;;11.05;2.33;;;;;;;15.60;50.60;101774.25;4959375;28;124887;-68
2022/11/02 07:13:24;;;;;;;13.27;2.65;;;;;;;15.59;50.62;101777.88;4959903;28;114096;-68
2022/11/02 07:15:52;;;;;;;9.88;1.90;;;;;;;15.59;50.62;101772.53;4978586;28;113508;-68
2022/11/02 07:18:20;;;;;;;7.38;1.92;;;;;;;15.60;50.89;101789.44;4967062;28;124405;-68
2022/11/02 07:20:47;;;;;;;11.00;2.05;;;;;;;15.58;50.82;101794.84;4973490;28;123875;-69
2022/11/02 07:23:14;;;;;;;8.77;1.80;;;;;;;15.58;50.87;101802.84;4967814;28;113623;-68
2022/11/02 07:25:41;;;;;;;9.85;1.90;;;;;;;15.57;50.82;101801.13;4966980;28;113202;-69
2022/11/02 07:28:08;;;;;;;11.27;1.90;;;;;;;15.56;50.79;101804.75;4968823;28;124032;-69
2022/11/02 07:30:36;;;;;;;8.80;2.15;;;;;;;15.54;50.79;101817.31;4967035;28;123959;-69
2022/11/02 07:33:03;;;;;;;11.40;2.10;;;;;;;15.53;50.85;101815.56;4969500;28;114425;-69
2022/11/02 07:35:32;;;;;;;7.65;2.00;;;;;;;15.53;50.88;101831.59;4955937;28;114836;-68
2022/11/02 07:38:02;;;;;;;9.02;1.98;;;;;;;15.53;50.88;101823.56;4969193;28;123860;-69
2022/11/02 07:40:31;;;;;;;8.68;1.98;;;;;;;15.54;51.05;101828.00;4965295;28;124170;-69
2022/11/02 07:42:58;;;;;;;8.63;1.85;;;;;;;15.56;50.98;101831.44;4965528;28;114438;-69
2022/11/02 07:45:43;;;;;;;;;;;;;;;15.53;50.77;101831.59;4959168;28;115264;-69
2022/11/02 07:48:10;;;;;;;9.68;2.00;;;;;;;15.55;50.89;101835.91;4965748;28;124821;-69
2022/11/02 07:50:37;;;;;;;8.38;1.75;;;;;;;15.54;50.96;101828.00;4978968;28;123366;-68
2022/11/02 07:53:04;;;;;;;8.88;1.90;;;;;;;15.55;50.97;101843.06;4956688;28;115412;-69
2022/11/02 07:55:32;;;;;;;8.45;1.98;;;;;;;15.55;50.88;101840.38;4959743;28;114861;-69
2022/11/02 07:58:08;;;;;;;11.57;2.03;;;;;;;15.55;50.84;101843.91;4965139;28;123327;-68
2022/11/02 08:00:38;;;;;;;12.43;1.70;;;;;;;15.57;51.01;101859.84;4982588;28;123215;-69
2022/11/02 08:03:07;;;;;;;10.15;1.80;;;;;;;15.58;50.93;101861.59;4956851;28;114751;-69
2022/11/02 08:05:37;;;;;;;10.82;1.83;;;;;;;15.58;50.94;101856.25;4960852;28;115979;-69
2022/11/02 08:08:08;;;;;;;11.98;2.20;;;;;;;15.60;51.07;101859.72;4956241;28;123988;-69
2022/11/02 08:10:36;;;;;;;7.93;1.90;;;;;;;15.60;51.14;101870.41;4970039;28;123900;-68
2022/11/02 08:13:12;;;;;;;13.15;1.98;;;;;;;15.62;51.12;101873.00;4970433;28;114613;-68
2022/11/02 08:15:39;;;;;;;13.23;2.30;;;;;;;15.62;51.22;101865.84;4973549;28;113972;-68
2022/11/02 08:18:18;;;;;;;9.40;2.00;;;;;;;15.63;51.21;101875.56;4972402;28;124438;-69
2022/11/02 08:20:46;;;;;;;7.78;1.98;;;;;;;15.67;51.21;101882.50;4969899;28;124639;-69
2022/11/02 08:23:15;;;;;;;12.25;2.42;;;;;;;15.70;51.14;101886.81;4954747;28;113106;-68
2022/11/02 08:25:44;;;;;;;8.05;1.85;;;;;;;15.70;51.26;101893.03;4970469;28;113338;-68
2022/11/02 08:28:23;;;;;;;9.65;1.85;;;;;;;15.73;51.41;101887.56;4970539;28;123186;-69
2022/11/02 08:30:51;;;;;;;12.88;2.00;;;;;;;15.74;51.35;101893.78;4969075;28;123922;-69
2022/11/02 08:33:19;;;;;;;8.68;1.73;;;;;;;15.76;51.05;101892.78;4987095;28;113050;-68
2022/11/02 08:35:47;;;;;;;7.95;1.73;;;;;;;15.79;51.36;101890.88;4972629;28;113612;-68
2022/11/02 08:38:15;;;;;;;10.68;2.25;;;;;;;15.83;51.36;101900.47;4971439;28;123998;-69
2022/11/02 08:40:42;;;;;;;8.80;2.00;;;;;;;15.86;51.37;101897.63;4971339;28;123616;-69
2022/11/02 08:43:11;;;;;;;6.82;2.08;;;;;;;15.88;51.35;101901.09;4970858;28;116169;-68
2022/11/02 08:45:40;;;;;;;8.80;1.58;;;;;;;15.92;51.34;101902.69;4970682;28;114852;-69
2022/11/02 08:48:27;;;;;;;11.13;2.00;;;;;;;15.95;51.23;101903.41;4972302;28;123906;-69
2022/11/02 08:50:55;;;;;;;9.65;2.10;;;;;;;16.00;51.38;101921.84;4968396;28;123161;-69
2022/11/02 08:53:22;;;;;;;7.45;1.67;;;;;;;16.04;51.20;101918.06;4969437;28;114113;-69
2022/11/02 08:55:49;;;;;;;10.70;1.90;;;;;;;16.07;51.30;101917.94;4972043;28;113863;-69
2022/11/02 08:58:17;;;;;;;10.70;2.22;;;;;;;16.13;51.26;101928.28;4972317;28;124104;-68
2022/11/02 09:00:44;;;;;;;10.07;2.22;;;;;;;16.17;51.34;101933.50;4971279;28;123592;-68
2022/11/02 09:03:14;;;;;;;9.05;1.83;;;;;;;16.20;51.07;101927.97;4971510;28;115092;-69
2022/11/02 09:05:45;;;;;;;8.10;1.98;;;;;;;16.24;51.15;101929.56;4971112;28;114183;-69
2022/11/02 09:08:15;;;;;;;11.13;2.28;;;;;;;16.29;51.25;101938.19;4968191;28;124364;-69
2022/11/02 09:10:43;;;;;;;10.02;2.10;;;;;;;16.35;51.04;101935.22;4969736;28;123022;-69
2022/11/02 09:13:13;;;;;;;11.07;2.28;;;;;;;16.38;50.98;101927.03;4970020;28;114793;-69
2022/11/02 09:15:40;;;;;;;11.95;1.98;;;;;;;16.41;50.76;101926.88;4961139;28;113148;-69
2022/11/02 09:18:08;;;;;;;11.52;1.95;;;;;;;16.45;50.67;101928.44;4950380;28;124123;-69
2022/11/02 09:20:35;;;;;;;11.07;2.40;;;;;;;16.47;50.65;101931.03;4970725;28;123555;-69
2022/11/02 09:23:02;;;;;;;11.88;2.10;;;;;;;16.51;50.71;101920.09;4971813;28;114021;-69
2022/11/02 09:25:30;;;;;;;8.68;1.92;;;;;;;16.53;50.73;101926.22;4957582;28;114197;-69
2022/11/02 09:27:57;;;;;;;9.77;2.17;;;;;;;16.59;50.55;101929.53;4965909;28;123049;-69
2022/11/02 09:30:27;;;;;;;7.85;2.30;;;;;;;16.63;50.31;101941.78;4965665;28;124747;-69
2022/11/02 09:32:56;;;;;;;8.27;1.80;;;;;;;16.65;50.24;101940.78;4969239;28;115368;-69
2022/11/02 09:35:24;;;;;;;10.10;2.10;;;;;;;16.70;50.06;101953.91;4970908;28;114914;-68
2022/11/02 09:37:51;;;;;;;11.77;1.73;;;;;;;16.73;49.86;101940.38;4971207;28;125273;-69
2022/11/02 09:40:24;;;;;;;12.98;2.25;;;;;;;16.75;49.68;101946.50;4971089;28;124782;-68
2022/11/02 09:43:12;;;;;;;11.52;1.90;;;;;;;16.78;49.72;101946.31;4968855;28;114201;-68
2022/11/02 09:45:55;;;;;;;14.73;1.95;;;;;;;16.80;49.54;101949.78;4967851;28;114257;-69
2022/11/02 09:48:35;;;;;;;9.10;1.92;;;;;;;16.83;49.67;101955.00;4971236;28;124200;-68
2022/11/02 09:51:13;;;;;;;13.57;2.53;;;;;;;16.89;49.48;101964.50;4969762;28;124369;-69
2022/11/02 09:53:50;;;;;;;10.02;1.80;;;;;;;16.92;49.03;101957.19;4971164;28;114119;-68
2022/11/02 09:56:18;;;;;;;11.18;1.90;;;;;;;16.98;49.26;101973.88;4966658;28;114744;-68
2022/11/02 09:59:00;;;;;;;7.70;2.10;;;;;;;17.03;49.41;101971.81;4970691;28;123778;-69
2022/11/02 10:02:05;;;;;;;9.85;2.03;;;;;;;17.09;49.07;101982.19;4970376;28;123781;-69
2022/11/02 10:04:38;;;;;;;10.93;2.00;;;;;;;17.11;49.04;101966.91;4972001;28;114876;-69
2022/11/02 10:07:29;;;;;;;12.65;2.20;;;;;;;17.14;48.88;101996.19;4968519;28;114263;-68
2022/11/02 10:10:01;;;;;;;9.50;1.77;;;;;;;17.19;48.88;101974.50;4968040;28;124065;-68
2022/11/02 10:12:43;;;;;;;12.43;1.90;;;;;;;17.25;49.08;101972.38;4962155;28;122941;-68
2022/11/02 10:15:18;;;;;;;10.50;1.90;;;;;;;17.35;48.97;101977.19;4950999;28;114458;-67
2022/11/02 10:17:46;;;;;;;;;;;;;;;17.40;49.21;101980.47;4951274;28;114339;-69
2022/11/02 10:20:25;;;;;;;12.82;2.00;;;;;;;17.44;48.81;101982.03;4965550;28;123132;-68
2022/11/02 10:23:12;;;;;;;11.05;2.00;;;;;;;17.46;48.62;101996.19;4950015;28;123593;-68
2022/11/02 10:25:40;;;;;;;9.75;2.13;;;;;;;17.49;48.61;102004.06;4967813;28;115068;-68
2022/11/02 10:28:19;;;;;;;9.40;2.15;;;;;;;17.52;48.74;102006.59;4970997;28;114576;-68
2022/11/02 10:30:46;;;;;;;14.00;2.05;;;;;;;17.58;48.52;102000.88;4969132;28;124997;-68
2022/11/02 10:33:19;;;;;;;11.50;2.00;;;;;;;17.66;48.71;102003.13;4970497;28;123903;-67
2022/11/02 10:35:55;;;;;;;17.02;1.92;;;;;;;17.74;48.32;102016.09;4966078;28;114405;-68
2022/11/02 10:38:54;;;;;;;9.43;2.03;;;;;;;17.84;48.23;102017.31;4953093;28;113617;-68
2022/11/02 10:41:36;;;;;;;16.90;2.28;;;;;;;17.93;48.17;102021.31;4983999;28;123712;-68
2022/11/02 10:44:29;;;;;;;15.27;2.60;;;;;;;18.02;48.08;102021.63;4968203;28;123873;-68
2022/11/02 10:47:05;;;;;;;10.07;2.38;;;;;;;18.06;47.75;102017.84;4967803;28;114369;-68
2022/11/02 10:49:54;;;;;;;9.27;2.72;;;;;;;18.09;47.76;102001.56;4964150;28;113756;-68
2022/11/02 10:52:22;;;;;;;9.77;2.17;;;;;;;18.16;47.77;102011.91;4989728;28;124402;-68
2022/11/02 10:54:50;;;;;;;12.98;2.35;;;;;;;18.22;47.41;102007.06;4982513;28;123426;-68
2022/11/02 10:57:24;;;;;;;11.02;2.05;;;;;;;18.25;47.35;102014.06;4964357;28;114316;-68
2022/11/02 11:00:30;;;;;;;11.13;1.92;;;;;;;18.32;47.27;102017.25;4967328;28;114208;-68
2022/11/02 11:03:05;;;;;;;10.32;2.25;;;;;;;18.40;47.25;102017.66;4968993;28;123543;-68
2022/11/02 11:05:34;;;;;;;;;;;;;;;18.45;47.68;102019.13;4963763;28;124550;-68
2022/11/02 11:08:03;;;;;;;7.60;2.00;;;;;;;18.55;47.16;102018.56;4976560;28;113501;-68
2022/11/02 11:10:36;;;;;;;8.57;2.20;;;;;;;18.57;46.45;102019.34;4957407;28;112649;-69
2022/11/02 11:13:06;;;;;;;10.65;1.88;;;;;;;18.58;46.46;102019.25;4972033;28;123108;-68
2022/11/02 11:15:34;;;;;;;10.90;2.15;;;;;;;18.58;46.32;102034.50;4961497;28;123017;-68
2022/11/02 11:18:20;;;;;;;7.88;1.95;;;;;;;18.57;46.02;102027.38;4963799;28;115480;-68
2022/11/02 11:21:07;;;;;;;9.00;2.30;;;;;;;18.57;46.06;102024.72;4968699;28;114606;-68
2022/11/02 11:23:34;;;;;;;8.13;2.20;;;;;;;18.58;45.90;102029.13;4967901;28;123064;-68
2022/11/02 11:26:05;;;;;;;8.25;1.77;;;;;;;18.59;45.86;102026.38;4971344;28;123001;-68
2022/11/02 11:28:50;;;;;;;9.95;1.92;;;;;;;18.64;45.58;102026.06;4976767;28;114387;-68
2022/11/02 11:31:18;;;;;;;9.80;2.17;;;;;;;18.67;45.71;102017.84;4976366;28;113236;-68
2022/11/02 11:33:49;;;;;;;10.20;2.25;;;;;;;18.70;45.27;102017.66;4974825;28;123996;-68
2022/11/02 11:36:35;;;;;;;8.10;1.83;;;;;;;18.73;45.56;102017.47;4959152;28;125319;-68
2022/11/02 11:39:25;;;;;;;7.63;2.30;;;;;;;18.79;45.23;102021.59;4961569;28;113901;-68
2022/11/02 11:41:52;;;;;;;10.77;2.10;;;;;;;18.82;45.18;102022.31;4964166;28;114099;-68
2022/11/02 11:44:20;;;;;;;8.68;2.00;;;;;;;18.88;44.60;102009.47;4977308;28;123974;-68
2022/11/02 11:46:51;;;;;;;8.10;1.75;;;;;;;18.91;44.25;102009.28;4977092;28;122875;-68
2022/11/02 11:49:32;;;;;;;7.88;2.28;;;;;;;18.92;44.73;102005.63;4965270;28;114376;-68
2022/11/02 11:52:27;;;;;;;10.18;2.10;;;;;;;18.96;44.39;101996.44;4979819;28;113013;-68
2022/11/02 11:55:25;;;;;;;9.93;1.98;;;;;;;18.99;44.59;101998.94;4980855;28;124523;-68